createdAt,value
2022-08-25T00:00:51.027Z,1.40
2022-08-25T00:05:44.995Z,1.58
2022-08-25T00:10:40.274Z,1.60
2022-08-25T00:15:34.175Z,2.05
2022-08-25T00:20:29.269Z,1.63
2022-08-25T00:25:24.531Z,1.30
2022-08-25T00:30:18.063Z,1.58
2022-08-25T00:35:11.703Z,1.60
2022-08-25T00:40:08.601Z,1.33
2022-08-25T00:45:07.191Z,1.65
2022-08-25T00:50:02.624Z,2.05
2022-08-25T00:55:08.228Z,1.85
2022-08-25T01:00:06.172Z,1.50
2022-08-25T01:05:00.152Z,2.00
2022-08-25T01:09:54.164Z,2.08
2022-08-25T01:14:47.910Z,1.65
2022-08-25T01:19:41.639Z,1.65
2022-08-25T01:24:59.765Z,1.60
2022-08-25T01:30:13.554Z,1.53
2022-08-25T01:35:24.222Z,1.88
2022-08-25T01:40:19.269Z,2.05
2022-08-25T01:45:13.659Z,1.38
2022-08-25T01:50:08.008Z,1.98
2022-08-25T01:55:02.621Z,1.60
2022-08-25T02:00:00.001Z,1.92
2022-08-25T02:04:54.004Z,1.40
2022-08-25T02:09:49.584Z,1.77
2022-08-25T02:14:44.123Z,1.58
2022-08-25T02:19:38.067Z,1.70
2022-08-25T02:24:31.892Z,1.67
2022-08-25T02:29:26.129Z,2.33
2022-08-25T02:34:19.096Z,2.42
2022-08-25T02:39:12.471Z,2.53
2022-08-25T02:44:08.254Z,2.60
2022-08-25T02:49:02.167Z,2.38
2022-08-25T02:53:58.231Z,1.77
2022-08-25T02:58:52.179Z,2.33
2022-08-25T03:03:47.502Z,2.65
2022-08-25T03:08:43.071Z,2.38
2022-08-25T03:13:36.985Z,3.70
2022-08-25T03:18:31.172Z,3.00
2022-08-25T03:23:25.459Z,3.45
2022-08-25T03:28:19.970Z,2.35
2022-08-25T03:33:18.420Z,3.00
2022-08-25T03:38:13.043Z,3.30
2022-08-25T03:43:07.571Z,3.67
2022-08-25T03:48:01.964Z,3.30
2022-08-25T03:52:57.818Z,3.60
2022-08-25T03:57:52.664Z,3.05
2022-08-25T04:02:46.832Z,3.67
2022-08-25T04:07:41.814Z,3.47
2022-08-25T04:12:35.738Z,2.90
2022-08-25T04:17:29.527Z,3.00
2022-08-25T04:22:24.407Z,2.80
2022-08-25T04:27:18.323Z,3.20
2022-08-25T04:32:13.194Z,3.38
2022-08-25T04:37:08.596Z,3.53
2022-08-25T04:42:03.424Z,5.72
2022-08-25T04:46:56.859Z,3.60
2022-08-25T04:51:50.970Z,3.45
2022-08-25T04:56:45.584Z,3.70
2022-08-25T05:01:40.190Z,3.90
2022-08-25T05:06:34.132Z,4.35
2022-08-25T05:11:28.499Z,3.83
2022-08-25T05:16:23.853Z,4.20
2022-08-25T05:21:27.378Z,2.97
2022-08-25T05:26:26.075Z,2.60
2022-08-25T05:31:20.192Z,3.00
2022-08-25T05:36:15.508Z,3.65
2022-08-25T05:41:11.225Z,3.55
2022-08-25T05:46:05.832Z,2.60
2022-08-25T05:51:01.044Z,4.45
2022-08-25T05:55:56.596Z,2.78
2022-08-25T06:00:50.581Z,4.57
2022-08-25T06:05:45.274Z,4.47
2022-08-25T06:10:40.890Z,4.25
2022-08-25T06:15:34.808Z,4.07
2022-08-25T06:20:31.444Z,3.83
2022-08-25T06:25:26.360Z,4.40
2022-08-25T06:30:28.450Z,4.35
2022-08-25T06:35:23.647Z,4.18
2022-08-25T06:40:17.514Z,4.20
2022-08-25T06:45:11.221Z,4.05
2022-08-25T06:50:06.035Z,4.22
2022-08-25T06:55:00.096Z,3.60
2022-08-25T06:59:54.901Z,3.53
2022-08-25T07:04:49.846Z,4.50
2022-08-25T07:09:44.439Z,3.45
2022-08-25T07:14:39.014Z,3.53
2022-08-25T07:19:33.560Z,3.63
2022-08-25T07:24:28.308Z,3.28
2022-08-25T07:29:31.879Z,3.63
2022-08-25T07:34:45.428Z,3.15
2022-08-25T07:39:46.635Z,2.78
2022-08-25T07:44:40.884Z,2.92
2022-08-25T07:49:39.942Z,2.50
2022-08-25T07:54:34.084Z,2.10
2022-08-25T07:59:29.108Z,2.00
2022-08-25T08:04:22.774Z,2.22
2022-08-25T08:09:17.141Z,2.20
2022-08-25T08:14:11.804Z,3.17
2022-08-25T08:19:07.124Z,4.43
2022-08-25T08:24:01.302Z,2.65
2022-08-25T08:28:56.211Z,2.55
2022-08-25T08:33:52.051Z,2.03
2022-08-25T08:38:46.708Z,2.53
2022-08-25T08:43:39.585Z,3.38
2022-08-25T08:48:44.916Z,2.00
2022-08-25T08:53:37.385Z,1.60
2022-08-25T08:58:37.331Z,1.50
2022-08-25T09:03:40.038Z,2.08
2022-08-25T09:08:34.183Z,2.20
2022-08-25T09:13:33.524Z,1.60
2022-08-25T09:18:52.922Z,1.90
2022-08-25T09:24:07.031Z,1.75
2022-08-25T09:29:19.288Z,1.67
2022-08-25T09:34:24.434Z,1.52
2022-08-25T09:39:20.535Z,2.45
2022-08-25T09:44:26.401Z,1.70
2022-08-25T09:49:21.117Z,1.70
2022-08-25T09:54:14.709Z,1.77
2022-08-25T09:59:21.198Z,2.10
2022-08-25T10:04:29.177Z,1.48
2022-08-25T10:09:43.415Z,1.67
2022-08-25T10:14:44.529Z,1.52
2022-08-25T10:19:39.137Z,1.50
2022-08-25T10:24:32.776Z,1.60
2022-08-25T10:29:54.069Z,2.15
2022-08-25T10:34:51.864Z,1.55
2022-08-25T10:39:56.798Z,1.75
2022-08-25T10:45:27.821Z,1.60
2022-08-25T10:50:34.290Z,1.83
2022-08-25T10:55:40.467Z,1.80
2022-08-25T11:00:40.315Z,1.70
2022-08-25T11:05:47.957Z,1.35
2022-08-25T11:10:49.362Z,1.30
2022-08-25T11:16:16.080Z,1.42
2022-08-25T11:21:19.412Z,1.63
2022-08-25T11:26:20.656Z,1.40
2022-08-25T11:31:19.484Z,1.30
2022-08-25T11:36:36.907Z,1.80
2022-08-25T11:41:56.792Z,1.50
2022-08-25T11:46:57.777Z,1.80
2022-08-25T11:51:52.856Z,1.60
2022-08-25T11:56:59.028Z,1.30
2022-08-25T12:02:03.021Z,1.70
2022-08-25T12:07:11.379Z,1.50
2022-08-25T12:12:33.011Z,1.70
2022-08-25T12:17:29.497Z,1.77
2022-08-25T12:22:27.969Z,1.90
2022-08-25T12:27:28.209Z,2.10
2022-08-25T12:33:00.237Z,1.85
2022-08-25T12:37:56.282Z,1.48
2022-08-25T12:43:03.218Z,2.08
2022-08-25T12:47:58.523Z,1.40
2022-08-25T12:52:59.896Z,1.33
2022-08-25T12:57:59.089Z,1.40
2022-08-25T13:03:22.544Z,2.00
2022-08-25T13:08:17.212Z,1.30
2022-08-25T13:13:52.279Z,1.83
2022-08-25T13:18:51.448Z,1.60
2022-08-25T13:23:47.653Z,2.10
2022-08-25T13:28:42.059Z,1.52
2022-08-25T13:33:58.217Z,2.05
2022-08-25T13:38:52.437Z,1.83
2022-08-25T13:43:46.971Z,1.60
2022-08-25T13:48:49.785Z,2.03
2022-08-25T13:53:50.518Z,1.80
2022-08-25T13:58:47.640Z,1.90
2022-08-25T14:03:45.705Z,1.58
2022-08-25T14:08:42.133Z,1.85
2022-08-25T14:13:36.283Z,2.72
2022-08-25T14:18:37.625Z,1.73
2022-08-25T14:23:32.283Z,1.90
2022-08-25T14:28:29.747Z,1.85
2022-08-25T14:33:24.929Z,2.00
2022-08-25T14:38:18.548Z,2.13
2022-08-25T14:43:12.413Z,2.20
2022-08-25T14:48:10.848Z,1.77
2022-08-25T14:53:05.611Z,1.90
2022-08-25T14:58:00.611Z,1.80
2022-08-25T15:02:54.106Z,2.83
2022-08-25T15:08:06.346Z,2.40
2022-08-25T15:13:00.364Z,2.42
2022-08-25T15:17:55.232Z,2.60
2022-08-25T15:22:52.254Z,2.33
2022-08-25T15:27:46.803Z,2.03
2022-08-25T15:32:41.301Z,2.28
2022-08-25T15:37:36.641Z,2.13
2022-08-25T15:42:31.956Z,2.47
2022-08-25T15:47:26.099Z,1.88
2022-08-25T15:52:25.910Z,2.30
2022-08-25T15:57:24.228Z,2.47
2022-08-25T16:02:19.066Z,2.13
2022-08-25T16:07:13.209Z,3.90
2022-08-25T16:12:08.637Z,2.60
2022-08-25T16:17:02.742Z,2.55
2022-08-25T16:21:56.866Z,2.60
2022-08-25T16:26:51.848Z,2.00
2022-08-25T16:31:53.210Z,2.38
2022-08-25T16:36:51.837Z,2.72
2022-08-25T16:41:46.647Z,2.33
2022-08-25T16:46:42.669Z,2.67
2022-08-25T16:51:39.747Z,2.38
2022-08-25T16:56:36.091Z,2.65
2022-08-25T17:01:32.187Z,3.15
2022-08-25T17:06:27.571Z,2.75
2022-08-25T17:11:28.400Z,2.75
2022-08-25T17:16:28.178Z,2.30
2022-08-25T17:21:24.287Z,2.90
2022-08-25T17:26:19.191Z,2.47
2022-08-25T17:31:12.928Z,2.67
2022-08-25T17:36:08.700Z,2.67
2022-08-25T17:41:07.349Z,2.10
2022-08-25T17:46:01.606Z,3.05
2022-08-25T17:50:57.100Z,2.90
2022-08-25T17:56:01.816Z,3.15
2022-08-25T18:00:55.796Z,2.65
2022-08-25T18:05:50.805Z,3.15
2022-08-25T18:10:45.714Z,2.97
2022-08-25T18:15:42.593Z,3.35
2022-08-25T18:20:37.245Z,3.20
2022-08-25T18:25:31.845Z,3.00
2022-08-25T18:30:26.374Z,3.63
2022-08-25T18:35:22.741Z,3.10
2022-08-25T18:40:23.502Z,3.13
2022-08-25T18:45:17.528Z,3.13
2022-08-25T18:50:10.917Z,3.15
2022-08-25T18:55:05.908Z,3.20
2022-08-25T18:59:59.471Z,3.15
2022-08-25T19:04:54.260Z,3.15
2022-08-25T19:09:48.084Z,3.13
2022-08-25T19:14:45.170Z,3.65
2022-08-25T19:19:39.546Z,3.83
2022-08-25T19:24:33.940Z,4.40
2022-08-25T19:29:30.441Z,3.35
2022-08-25T19:34:30.425Z,3.57
2022-08-25T19:39:24.756Z,4.20
2022-08-25T19:44:18.421Z,4.97
2022-08-25T19:49:26.669Z,4.80
2022-08-25T19:54:23.832Z,3.75
2022-08-25T19:59:21.401Z,3.35
2022-08-25T20:04:16.960Z,3.97
2022-08-25T20:09:21.111Z,3.30
2022-08-25T20:14:25.521Z,4.15
2022-08-25T20:19:18.742Z,4.70
2022-08-25T20:24:31.060Z,4.00
2022-08-25T20:29:25.431Z,4.05
2022-08-25T20:34:19.519Z,3.67
2022-08-25T20:39:13.580Z,3.67
2022-08-25T20:44:09.971Z,5.25
2022-08-25T20:49:06.612Z,5.82
2022-08-25T20:54:01.524Z,4.28
2022-08-25T20:58:58.487Z,4.63
2022-08-25T21:03:53.820Z,4.97
2022-08-25T21:08:50.628Z,4.32
2022-08-25T21:13:47.033Z,4.50
2022-08-25T21:18:47.993Z,5.07
2022-08-25T21:23:46.898Z,5.25
2022-08-25T21:28:47.832Z,3.83
2022-08-25T21:33:42.567Z,3.67
2022-08-25T21:38:36.445Z,3.28
2022-08-25T21:43:35.956Z,3.97
2022-08-25T21:48:36.213Z,3.78
2022-08-25T21:53:35.254Z,3.70
2022-08-25T21:58:30.713Z,3.47
2022-08-25T22:03:26.916Z,4.10
2022-08-25T22:08:23.825Z,3.80
2022-08-25T22:13:25.556Z,3.88
2022-08-25T22:18:22.698Z,4.03
2022-08-25T22:23:20.360Z,3.90
2022-08-25T22:28:17.172Z,4.30
2022-08-25T22:33:13.589Z,3.88
2022-08-25T22:38:12.447Z,4.05
2022-08-25T22:43:10.817Z,4.47
2022-08-25T22:48:06.966Z,4.03
2022-08-25T22:53:01.951Z,3.70
2022-08-25T22:57:58.081Z,3.47
2022-08-25T23:02:54.268Z,4.10
2022-08-25T23:07:50.998Z,4.07
2022-08-25T23:12:46.462Z,4.32
2022-08-25T23:17:42.608Z,4.55
2022-08-25T23:22:38.616Z,4.03
2022-08-25T23:27:38.423Z,4.07
2022-08-25T23:32:35.964Z,4.20
2022-08-25T23:42:25.083Z,3.92
2022-08-25T23:47:20.116Z,4.28
2022-08-25T23:52:19.451Z,4.55
2022-08-25T23:57:12.784Z,4.32
